OIAG  Aghajari Airport

Add Bookmark

Iran

Status
Operational
Latitude Longitude
30° 44' 39" N 49° 40' 37" E
30.744400 49.677200
Local (DST + 5) UTC (GMT + 4)
Nov 28, 2014 07:07 Nov 28, 2014 15:37
Sunrise-Sunset Local UTC
Begin Civil Twilight 06:21 02:51
Sunrise 06:47 03:17
Sunset 05:11 13:41
End Civil Twilight 05:37 14:07

Current Weather

METAR Observed VFR
OIAG 281400Z 32008KT 9999 FEW040 19/12 Q1018 Fri, Nov 28, 2014 @ 14:00 UTC
(1 Hour, 37 Minutes ago)
Visual Flight Rules
Wind Visibility Clouds Conditions
320° at 8 knots (15 kph) 10 km or more
  • Few at 4,000' AGL
  • No significant weather
Temperatures Readings Precipitation
Current Temp 19°C (66°F)
Dewpoint 12°C (54°F)
Humidity 64%
Altimeter 30.06"Hg
Sea Level Pressure 1018mb
Field Elevation 95.14'
None Recorded

Additional weather within a 92.6km radius of OIAG

Map ICAO Location
OIAM 54.4km W (248°)

24 Hour Weather History

Loading
-

24 Hour Weather Graphs

Loading
-

CheckWX.com is intended as a tool to help pilots better visualize weather data. It is not intended as a substitute for an official weather briefing obtained from a Flight Service Station. CheckWX.com does not meet the FAA requirements for an official pre-flight weather briefing. Therefore, it's important that pilots still call and obtain an official FSS pre-flight weather briefing.